DLH2EL EDDF-LEBL
Flight info
| Callsign | DLH2EL |
|---|---|
| Flight time | 1h 33m |
| Altitude | 34000 |
| Route | ANEKI2L ANEKI Y163 HERBI Y164 OLBEN DCT MOLUS DCT INCUS DCT FJR DCT YACIM DCT ALBER |
| Aircraft | A320/M-SDE3FGHIRWY/LB1 |
Departure
| Time | 2026-04-14 10:15 |
|---|---|
| Airport | Frankfurt Main Airport (EDDF) |
Arrival
| Time | 2026-04-14 11:48 |
|---|---|
| Airport | Josep Tarradellas Barcelona-El Prat Airport (LEBL) |
| Time | Latitude | Longitude | Altitude | Speed | Heading |
|---|---|---|---|---|---|
| 2026-04-14 09:43 | 50.04402 | 8.56222 | 338 ft | 0 kts | 160° |
| 2026-04-14 09:44 | 50.04403 | 8.56222 | 362 ft | 0 kts | 159° |
| 2026-04-14 10:05 | 50.04416 | 8.56214 | 362 ft | 4 kts | 162° |
| 2026-04-14 10:05 | 50.04442 | 8.56203 | 358 ft | 4 kts | 173° |
| 2026-04-14 10:05 | 50.04467 | 8.56204 | 359 ft | 4 kts | 212° |
| 2026-04-14 10:06 | 50.04477 | 8.56217 | 360 ft | 0 kts | 250° |
| 2026-04-14 10:06 | 50.04470 | 8.56187 | 358 ft | 4 kts | 250° |
| 2026-04-14 10:06 | 50.04460 | 8.56148 | 358 ft | 4 kts | 250° |
| 2026-04-14 10:06 | 50.04453 | 8.56118 | 363 ft | 0 kts | 249° |
| 2026-04-14 10:09 | 50.04452 | 8.56113 | 362 ft | 1 kts | 249° |
| 2026-04-14 10:09 | 50.04440 | 8.56063 | 362 ft | 7 kts | 249° |
| 2026-04-14 10:09 | 50.04402 | 8.56027 | 356 ft | 7 kts | 182° |
| 2026-04-14 10:09 | 50.04346 | 8.56055 | 358 ft | 11 kts | 159° |
| 2026-04-14 10:10 | 50.04278 | 8.56074 | 354 ft | 10 kts | 205° |
| 2026-04-14 10:10 | 50.04246 | 8.55966 | 357 ft | 15 kts | 249° |
| 2026-04-14 10:10 | 50.04201 | 8.55779 | 352 ft | 21 kts | 248° |
| 2026-04-14 10:10 | 50.04146 | 8.55563 | 356 ft | 22 kts | 251° |
| 2026-04-14 10:11 | 50.04094 | 8.55334 | 361 ft | 23 kts | 249° |
| 2026-04-14 10:11 | 50.04039 | 8.55100 | 360 ft | 24 kts | 249° |
| 2026-04-14 10:11 | 50.03979 | 8.54853 | 359 ft | 25 kts | 250° |
| 2026-04-14 10:11 | 50.03916 | 8.54588 | 353 ft | 27 kts | 250° |
| 2026-04-14 10:12 | 50.03830 | 8.54315 | 351 ft | 29 kts | 231° |
| 2026-04-14 10:12 | 50.03753 | 8.54027 | 350 ft | 29 kts | 250° |
| 2026-04-14 10:12 | 50.03686 | 8.53748 | 350 ft | 27 kts | 250° |
| 2026-04-14 10:12 | 50.03616 | 8.53467 | 338 ft | 28 kts | 249° |
| 2026-04-14 10:13 | 50.03548 | 8.53181 | 335 ft | 28 kts | 250° |
| 2026-04-14 10:13 | 50.03478 | 8.52893 | 336 ft | 29 kts | 246° |
| 2026-04-14 10:13 | 50.03415 | 8.52655 | 333 ft | 14 kts | 250° |
| 2026-04-14 10:13 | 50.03376 | 8.52592 | 334 ft | 7 kts | 177° |
| 2026-04-14 10:14 | 50.03362 | 8.52593 | 335 ft | 0 kts | 179° |
| 2026-04-14 10:14 | 50.03353 | 8.52594 | 335 ft | 8 kts | 179° |
| 2026-04-14 10:14 | 50.03090 | 8.52595 | 335 ft | 75 kts | 180° |
| 2026-04-14 10:14 | 50.02340 | 8.52604 | 333 ft | 137 kts | 180° |
| 2026-04-14 10:15 | 50.01221 | 8.52611 | 362 ft | 181 kts | 180° |
| 2026-04-14 10:15 | 49.99961 | 8.52643 | 1079 ft | 179 kts | 178° |
| 2026-04-14 10:15 | 49.98711 | 8.52721 | 2069 ft | 184 kts | 178° |
| 2026-04-14 10:15 | 49.97370 | 8.52812 | 2646 ft | 205 kts | 177° |
| 2026-04-14 10:16 | 49.95883 | 8.52914 | 3144 ft | 220 kts | 176° |
| 2026-04-14 10:16 | 49.94295 | 8.53037 | 3551 ft | 236 kts | 176° |
| 2026-04-14 10:16 | 49.92618 | 8.53167 | 4136 ft | 244 kts | 176° |
| 2026-04-14 10:16 | 49.90936 | 8.53291 | 5086 ft | 241 kts | 177° |
| 2026-04-14 10:17 | 49.89249 | 8.53411 | 5856 ft | 243 kts | 178° |
| 2026-04-14 10:17 | 49.87543 | 8.53523 | 6596 ft | 246 kts | 178° |
| 2026-04-14 10:17 | 49.85840 | 8.53634 | 7124 ft | 250 kts | 178° |
| 2026-04-14 10:17 | 49.84110 | 8.53749 | 7182 ft | 247 kts | 178° |
| 2026-04-14 10:18 | 49.80707 | 8.53975 | 7177 ft | 245 kts | 178° |
| 2026-04-14 10:18 | 49.78999 | 8.54089 | 7180 ft | 245 kts | 178° |
| 2026-04-14 10:18 | 49.77277 | 8.54031 | 7184 ft | 257 kts | 186° |
| 2026-04-14 10:19 | 49.75413 | 8.53775 | 7176 ft | 274 kts | 185° |
| 2026-04-14 10:19 | 49.73500 | 8.53519 | 7176 ft | 276 kts | 185° |
| 2026-04-14 10:19 | 49.71607 | 8.53270 | 7180 ft | 277 kts | 185° |
| 2026-04-14 10:19 | 49.69682 | 8.53020 | 7184 ft | 276 kts | 185° |
| 2026-04-14 10:20 | 49.67749 | 8.52767 | 7554 ft | 279 kts | 185° |
| 2026-04-14 10:20 | 49.65812 | 8.52514 | 8488 ft | 279 kts | 185° |
| 2026-04-14 10:20 | 49.63875 | 8.52261 | 9412 ft | 279 kts | 185° |
| 2026-04-14 10:20 | 49.61938 | 8.52006 | 10252 ft | 281 kts | 185° |
| 2026-04-14 10:21 | 49.59939 | 8.51740 | 10614 ft | 301 kts | 186° |
| 2026-04-14 10:21 | 49.57768 | 8.51403 | 10836 ft | 325 kts | 187° |
| 2026-04-14 10:21 | 49.55465 | 8.50732 | 11063 ft | 344 kts | 194° |
| 2026-04-14 10:21 | 49.53109 | 8.49822 | 11620 ft | 351 kts | 195° |
| 2026-04-14 10:22 | 49.50730 | 8.48855 | 12297 ft | 355 kts | 195° |
| 2026-04-14 10:22 | 49.48330 | 8.47861 | 12995 ft | 358 kts | 195° |
| 2026-04-14 10:22 | 49.45929 | 8.46867 | 13684 ft | 362 kts | 195° |
| 2026-04-14 10:22 | 49.43484 | 8.45858 | 14321 ft | 365 kts | 195° |
| 2026-04-14 10:23 | 49.41017 | 8.44847 | 14920 ft | 368 kts | 195° |
| 2026-04-14 10:23 | 49.38540 | 8.43837 | 15507 ft | 372 kts | 195° |
| 2026-04-14 10:23 | 49.36035 | 8.42819 | 16095 ft | 375 kts | 195° |
| 2026-04-14 10:23 | 49.33491 | 8.41788 | 16668 ft | 378 kts | 195° |
| 2026-04-14 10:24 | 49.30936 | 8.40751 | 17226 ft | 381 kts | 195° |
| 2026-04-14 10:24 | 49.28357 | 8.39706 | 17779 ft | 384 kts | 195° |
| 2026-04-14 10:24 | 49.25755 | 8.38654 | 18323 ft | 387 kts | 195° |
| 2026-04-14 10:24 | 49.23172 | 8.37615 | 18808 ft | 390 kts | 195° |
| 2026-04-14 10:25 | 49.20541 | 8.36559 | 19301 ft | 392 kts | 195° |
| 2026-04-14 10:25 | 49.17893 | 8.35495 | 19779 ft | 394 kts | 195° |
| 2026-04-14 10:25 | 49.15234 | 8.34426 | 20271 ft | 396 kts | 195° |
| 2026-04-14 10:25 | 49.12590 | 8.33363 | 20751 ft | 398 kts | 195° |
| 2026-04-14 10:26 | 49.09864 | 8.32271 | 21228 ft | 400 kts | 195° |
| 2026-04-14 10:26 | 49.07169 | 8.31190 | 21695 ft | 402 kts | 195° |
| 2026-04-14 10:26 | 49.04479 | 8.30115 | 22156 ft | 404 kts | 194° |
| 2026-04-14 10:26 | 49.01741 | 8.29021 | 22627 ft | 406 kts | 194° |
| 2026-04-14 10:27 | 48.99002 | 8.27927 | 23081 ft | 408 kts | 194° |
| 2026-04-14 10:27 | 48.97175 | 8.27201 | 23374 ft | 409 kts | 194° |
| 2026-04-14 10:27 | 48.93510 | 8.25747 | 23915 ft | 411 kts | 194° |
| 2026-04-14 10:27 | 48.90739 | 8.24643 | 24266 ft | 413 kts | 194° |
| 2026-04-14 10:28 | 48.88882 | 8.23903 | 24499 ft | 415 kts | 194° |
| 2026-04-14 10:28 | 48.86073 | 8.22787 | 24848 ft | 417 kts | 194° |
| 2026-04-14 10:28 | 48.82337 | 8.21308 | 25317 ft | 419 kts | 194° |
| 2026-04-14 10:28 | 48.79510 | 8.20192 | 25648 ft | 421 kts | 194° |
| 2026-04-14 10:29 | 48.77611 | 8.19444 | 25868 ft | 422 kts | 194° |
| 2026-04-14 10:29 | 48.74764 | 8.18320 | 26200 ft | 424 kts | 194° |
| 2026-04-14 10:29 | 48.71905 | 8.17188 | 26518 ft | 426 kts | 194° |
| 2026-04-14 10:29 | 48.69012 | 8.16041 | 26832 ft | 428 kts | 194° |
| 2026-04-14 10:30 | 48.66118 | 8.14895 | 27149 ft | 430 kts | 194° |
| 2026-04-14 10:30 | 48.63212 | 8.13750 | 27460 ft | 431 kts | 194° |
| 2026-04-14 10:30 | 48.60333 | 8.12620 | 27773 ft | 433 kts | 194° |
| 2026-04-14 10:30 | 48.59342 | 8.12232 | 27874 ft | 434 kts | 194° |
| 2026-04-14 10:31 | 48.57696 | 8.11595 | 27951 ft | 437 kts | 194° |
| 2026-04-14 10:31 | 48.54732 | 8.10448 | 28300 ft | 437 kts | 194° |
| 2026-04-14 10:31 | 48.51820 | 8.09312 | 28612 ft | 439 kts | 194° |
| 2026-04-14 10:32 | 48.48864 | 8.08153 | 28990 ft | 438 kts | 194° |
| 2026-04-14 10:32 | 48.45910 | 8.06990 | 29404 ft | 436 kts | 194° |
| 2026-04-14 10:32 | 48.42962 | 8.05831 | 29811 ft | 435 kts | 194° |
| 2026-04-14 10:32 | 48.40055 | 8.04694 | 30226 ft | 434 kts | 194° |
| 2026-04-14 10:33 | 48.37126 | 8.03554 | 30589 ft | 433 kts | 194° |
| 2026-04-14 10:33 | 48.34227 | 8.02431 | 30902 ft | 433 kts | 194° |
| 2026-04-14 10:33 | 48.31309 | 8.01300 | 31207 ft | 433 kts | 194° |
| 2026-04-14 10:33 | 48.28384 | 8.00168 | 31502 ft | 433 kts | 194° |
| 2026-04-14 10:34 | 48.22570 | 7.97923 | 32101 ft | 433 kts | 194° |
| 2026-04-14 10:34 | 48.19653 | 7.96795 | 32411 ft | 432 kts | 194° |
| 2026-04-14 10:34 | 48.16727 | 7.95662 | 32744 ft | 432 kts | 194° |
| 2026-04-14 10:35 | 48.13817 | 7.94538 | 33049 ft | 432 kts | 194° |
| 2026-04-14 10:35 | 48.10898 | 7.93413 | 33345 ft | 432 kts | 194° |
| 2026-04-14 10:35 | 48.07989 | 7.92291 | 33636 ft | 432 kts | 194° |
| 2026-04-14 10:35 | 48.05063 | 7.91163 | 33949 ft | 432 kts | 194° |
| 2026-04-14 10:36 | 48.02182 | 7.90057 | 34143 ft | 433 kts | 193° |
| 2026-04-14 10:36 | 47.96309 | 7.87807 | 34181 ft | 435 kts | 193° |
| 2026-04-14 10:37 | 47.90469 | 7.85581 | 34174 ft | 435 kts | 193° |
| 2026-04-14 10:37 | 47.84924 | 7.83475 | 34179 ft | 436 kts | 193° |
| 2026-04-14 10:38 | 47.79050 | 7.81234 | 34184 ft | 435 kts | 193° |
| 2026-04-14 10:38 | 47.73165 | 7.78997 | 34187 ft | 435 kts | 193° |
| 2026-04-14 10:39 | 47.67910 | 7.77017 | 34185 ft | 435 kts | 193° |
| 2026-04-14 10:39 | 47.62062 | 7.74814 | 34193 ft | 435 kts | 193° |
| 2026-04-14 10:40 | 47.56187 | 7.72598 | 34191 ft | 435 kts | 193° |
| 2026-04-14 10:40 | 47.50333 | 7.70379 | 34195 ft | 435 kts | 193° |
| 2026-04-14 10:41 | 47.44440 | 7.68165 | 34186 ft | 436 kts | 193° |
| 2026-04-14 10:41 | 47.38578 | 7.65974 | 34183 ft | 435 kts | 193° |
| 2026-04-14 10:42 | 47.32694 | 7.63683 | 34173 ft | 436 kts | 198° |
| 2026-04-14 10:42 | 47.27378 | 7.59485 | 34166 ft | 438 kts | 216° |
| 2026-04-14 10:43 | 47.22532 | 7.54001 | 34159 ft | 439 kts | 216° |
| 2026-04-14 10:43 | 47.17691 | 7.48588 | 34162 ft | 439 kts | 216° |
| 2026-04-14 10:44 | 47.12813 | 7.43152 | 34169 ft | 439 kts | 216° |
| 2026-04-14 10:44 | 47.07968 | 7.37752 | 34166 ft | 439 kts | 216° |
| 2026-04-14 10:45 | 47.03099 | 7.32321 | 34155 ft | 439 kts | 216° |
| 2026-04-14 10:45 | 46.98247 | 7.26920 | 34141 ft | 439 kts | 216° |
| 2026-04-14 10:46 | 46.93361 | 7.21512 | 34136 ft | 439 kts | 216° |
| 2026-04-14 10:46 | 46.88507 | 7.16159 | 34153 ft | 439 kts | 216° |
| 2026-04-14 10:47 | 46.83617 | 7.10767 | 34174 ft | 439 kts | 216° |
| 2026-04-14 10:47 | 46.78741 | 7.05399 | 34155 ft | 439 kts | 216° |
| 2026-04-14 10:48 | 46.73854 | 7.00025 | 34161 ft | 439 kts | 216° |
| 2026-04-14 10:48 | 46.68959 | 6.94660 | 34151 ft | 439 kts | 216° |
| 2026-04-14 10:49 | 46.64080 | 6.89338 | 34140 ft | 439 kts | 216° |
| 2026-04-14 10:49 | 46.59211 | 6.84030 | 34134 ft | 439 kts | 216° |
| 2026-04-14 10:50 | 46.54304 | 6.78688 | 34123 ft | 439 kts | 216° |
| 2026-04-14 10:50 | 46.49427 | 6.73405 | 34111 ft | 438 kts | 215° |
| 2026-04-14 10:51 | 46.44740 | 6.68332 | 34110 ft | 438 kts | 215° |
| 2026-04-14 10:51 | 46.39841 | 6.63010 | 34105 ft | 438 kts | 216° |
| 2026-04-14 10:52 | 46.35001 | 6.57720 | 34107 ft | 438 kts | 216° |
| 2026-04-14 10:52 | 46.30126 | 6.52398 | 34114 ft | 438 kts | 216° |
| 2026-04-14 10:53 | 46.25275 | 6.47123 | 34121 ft | 437 kts | 216° |
| 2026-04-14 10:53 | 46.20399 | 6.41848 | 34124 ft | 437 kts | 216° |
| 2026-04-14 10:54 | 46.15520 | 6.36586 | 34130 ft | 437 kts | 216° |
| 2026-04-14 10:54 | 46.10657 | 6.31354 | 34128 ft | 436 kts | 216° |
| 2026-04-14 10:55 | 46.05822 | 6.26148 | 34117 ft | 436 kts | 216° |
| 2026-04-14 10:55 | 46.00942 | 6.20890 | 34120 ft | 436 kts | 216° |
| 2026-04-14 10:56 | 45.96080 | 6.15670 | 34120 ft | 436 kts | 216° |
| 2026-04-14 10:56 | 45.91208 | 6.10477 | 34119 ft | 436 kts | 215° |
| 2026-04-14 10:57 | 45.86353 | 6.05323 | 34116 ft | 436 kts | 215° |
| 2026-04-14 10:57 | 45.81393 | 6.00316 | 34121 ft | 435 kts | 213° |
| 2026-04-14 10:58 | 45.76326 | 5.95559 | 34142 ft | 435 kts | 212° |
| 2026-04-14 10:58 | 45.71242 | 5.90840 | 34142 ft | 435 kts | 212° |
| 2026-04-14 10:59 | 45.66179 | 5.86085 | 34145 ft | 435 kts | 212° |
| 2026-04-14 10:59 | 45.61158 | 5.81325 | 34148 ft | 434 kts | 212° |
| 2026-04-14 11:00 | 45.56110 | 5.76551 | 34146 ft | 434 kts | 212° |
| 2026-04-14 11:00 | 45.51090 | 5.71837 | 33857 ft | 434 kts | 213° |
| 2026-04-14 11:00 | 45.48555 | 5.69460 | 34138 ft | 434 kts | 212° |
| 2026-04-14 11:01 | 45.46034 | 5.67097 | 34130 ft | 433 kts | 212° |
| 2026-04-14 11:01 | 45.41022 | 5.62396 | 34136 ft | 434 kts | 212° |
| 2026-04-14 11:02 | 45.35960 | 5.57664 | 34130 ft | 434 kts | 212° |
| 2026-04-14 11:02 | 45.30931 | 5.52981 | 34129 ft | 435 kts | 212° |
| 2026-04-14 11:03 | 45.25852 | 5.48250 | 34143 ft | 435 kts | 212° |
| 2026-04-14 11:03 | 45.20804 | 5.43554 | 34128 ft | 436 kts | 212° |
| 2026-04-14 11:04 | 45.15734 | 5.38854 | 34129 ft | 436 kts | 212° |
| 2026-04-14 11:04 | 45.10646 | 5.34164 | 34121 ft | 436 kts | 212° |
| 2026-04-14 11:05 | 45.05555 | 5.29480 | 34120 ft | 436 kts | 212° |
| 2026-04-14 11:05 | 45.00502 | 5.24824 | 34124 ft | 435 kts | 212° |
| 2026-04-14 11:06 | 44.95430 | 5.20162 | 34140 ft | 434 kts | 213° |
| 2026-04-14 11:06 | 44.90369 | 5.15523 | 34139 ft | 432 kts | 213° |
| 2026-04-14 11:07 | 44.85350 | 5.10939 | 34138 ft | 431 kts | 213° |
| 2026-04-14 11:07 | 44.80312 | 5.06343 | 34127 ft | 431 kts | 213° |
| 2026-04-14 11:08 | 44.75270 | 5.01748 | 34116 ft | 431 kts | 213° |
| 2026-04-14 11:08 | 44.70224 | 4.97164 | 34088 ft | 432 kts | 213° |
| 2026-04-14 11:09 | 44.65279 | 4.92679 | 34074 ft | 433 kts | 213° |
| 2026-04-14 11:09 | 44.60228 | 4.88111 | 34045 ft | 434 kts | 213° |
| 2026-04-14 11:10 | 44.52590 | 4.81219 | 34029 ft | 437 kts | 213° |
| 2026-04-14 11:10 | 44.47459 | 4.76602 | 34027 ft | 438 kts | 213° |
| 2026-04-14 11:11 | 44.42327 | 4.71995 | 34022 ft | 440 kts | 213° |
| 2026-04-14 11:11 | 44.37153 | 4.67349 | 34014 ft | 442 kts | 213° |
| 2026-04-14 11:12 | 44.31954 | 4.62699 | 34011 ft | 443 kts | 213° |
| 2026-04-14 11:12 | 44.26750 | 4.58068 | 34011 ft | 445 kts | 213° |
| 2026-04-14 11:13 | 44.22399 | 4.54193 | 34010 ft | 446 kts | 213° |
| 2026-04-14 11:13 | 44.17149 | 4.49519 | 34003 ft | 447 kts | 213° |
| 2026-04-14 11:14 | 44.11916 | 4.44866 | 34010 ft | 449 kts | 213° |
| 2026-04-14 11:14 | 44.06651 | 4.40203 | 34001 ft | 450 kts | 213° |
| 2026-04-14 11:15 | 44.01335 | 4.35527 | 34006 ft | 452 kts | 213° |
| 2026-04-14 11:15 | 43.96014 | 4.30840 | 33999 ft | 453 kts | 214° |
| 2026-04-14 11:16 | 43.90698 | 4.26154 | 34006 ft | 454 kts | 213° |
| 2026-04-14 11:16 | 43.85355 | 4.21459 | 34002 ft | 455 kts | 214° |
| 2026-04-14 11:17 | 43.80005 | 4.16783 | 34006 ft | 456 kts | 214° |
| 2026-04-14 11:17 | 43.74605 | 4.12077 | 34027 ft | 457 kts | 214° |
| 2026-04-14 11:18 | 43.69239 | 4.07395 | 34040 ft | 458 kts | 214° |
| 2026-04-14 11:18 | 43.63842 | 4.02685 | 34037 ft | 458 kts | 214° |
| 2026-04-14 11:19 | 43.58478 | 3.98020 | 34042 ft | 458 kts | 215° |
| 2026-04-14 11:19 | 43.53351 | 3.92774 | 34030 ft | 457 kts | 219° |
| 2026-04-14 11:20 | 43.48303 | 3.87483 | 34042 ft | 457 kts | 219° |
| 2026-04-14 11:20 | 43.43211 | 3.82172 | 34038 ft | 458 kts | 219° |
| 2026-04-14 11:21 | 43.38139 | 3.76883 | 34039 ft | 458 kts | 219° |
| 2026-04-14 11:21 | 43.33086 | 3.71614 | 34042 ft | 459 kts | 219° |
| 2026-04-14 11:22 | 43.27973 | 3.66316 | 34044 ft | 460 kts | 219° |
| 2026-04-14 11:22 | 43.22838 | 3.61050 | 34044 ft | 460 kts | 219° |
| 2026-04-14 11:23 | 43.18141 | 3.56241 | 34047 ft | 461 kts | 218° |
| 2026-04-14 11:23 | 43.12974 | 3.51008 | 34042 ft | 461 kts | 218° |
| 2026-04-14 11:24 | 43.07771 | 3.45774 | 34053 ft | 462 kts | 218° |
| 2026-04-14 11:24 | 43.02609 | 3.40559 | 33477 ft | 466 kts | 218° |
| 2026-04-14 11:25 | 43.00005 | 3.37921 | 32888 ft | 466 kts | 218° |
| 2026-04-14 11:25 | 42.97427 | 3.35312 | 32103 ft | 466 kts | 220° |
| 2026-04-14 11:25 | 42.94764 | 3.32623 | 31540 ft | 484 kts | 220° |
| 2026-04-14 11:25 | 42.92020 | 3.29859 | 30984 ft | 493 kts | 219° |
| 2026-04-14 11:26 | 42.89242 | 3.27070 | 30451 ft | 495 kts | 219° |
| 2026-04-14 11:26 | 42.86456 | 3.24284 | 29884 ft | 496 kts | 219° |
| 2026-04-14 11:26 | 42.83697 | 3.21527 | 29261 ft | 497 kts | 219° |
| 2026-04-14 11:26 | 42.80897 | 3.18731 | 28650 ft | 497 kts | 219° |
| 2026-04-14 11:27 | 42.78131 | 3.15967 | 28058 ft | 498 kts | 219° |
| 2026-04-14 11:27 | 42.75335 | 3.13171 | 27478 ft | 499 kts | 219° |
| 2026-04-14 11:27 | 42.72533 | 3.10373 | 26906 ft | 498 kts | 219° |
| 2026-04-14 11:27 | 42.69743 | 3.07589 | 26336 ft | 494 kts | 219° |
| 2026-04-14 11:28 | 42.66977 | 3.04831 | 25793 ft | 491 kts | 219° |
| 2026-04-14 11:28 | 42.64233 | 3.02104 | 25253 ft | 487 kts | 218° |
| 2026-04-14 11:28 | 42.61509 | 2.99401 | 24726 ft | 483 kts | 218° |
| 2026-04-14 11:28 | 42.58810 | 2.96726 | 24249 ft | 487 kts | 218° |
| 2026-04-14 11:29 | 42.56049 | 2.93988 | 23773 ft | 492 kts | 218° |
| 2026-04-14 11:29 | 42.53289 | 2.91254 | 23230 ft | 491 kts | 218° |
| 2026-04-14 11:29 | 42.50533 | 2.88529 | 22694 ft | 488 kts | 218° |
| 2026-04-14 11:29 | 42.47792 | 2.85832 | 22142 ft | 484 kts | 217° |
| 2026-04-14 11:30 | 42.44869 | 2.83601 | 21608 ft | 481 kts | 203° |
| 2026-04-14 11:30 | 42.41706 | 2.82344 | 21093 ft | 477 kts | 191° |
| 2026-04-14 11:30 | 42.38453 | 2.81531 | 20579 ft | 473 kts | 190° |
| 2026-04-14 11:30 | 42.35224 | 2.80740 | 20082 ft | 468 kts | 190° |
| 2026-04-14 11:31 | 42.32038 | 2.79966 | 19590 ft | 463 kts | 190° |
| 2026-04-14 11:31 | 42.28878 | 2.79199 | 19109 ft | 458 kts | 190° |
| 2026-04-14 11:31 | 42.25754 | 2.78439 | 18628 ft | 453 kts | 190° |
| 2026-04-14 11:31 | 42.22694 | 2.77693 | 18140 ft | 449 kts | 190° |
| 2026-04-14 11:32 | 42.19621 | 2.76943 | 17599 ft | 445 kts | 190° |
| 2026-04-14 11:32 | 42.16586 | 2.76202 | 17080 ft | 441 kts | 190° |
| 2026-04-14 11:32 | 42.13607 | 2.75474 | 16561 ft | 437 kts | 190° |
| 2026-04-14 11:32 | 42.10621 | 2.74745 | 16057 ft | 434 kts | 191° |
| 2026-04-14 11:33 | 42.07652 | 2.74020 | 15550 ft | 429 kts | 190° |
| 2026-04-14 11:33 | 42.04732 | 2.73306 | 15048 ft | 426 kts | 190° |
| 2026-04-14 11:33 | 42.01810 | 2.72594 | 14555 ft | 421 kts | 190° |
| 2026-04-14 11:34 | 41.96157 | 2.71219 | 13547 ft | 407 kts | 190° |
| 2026-04-14 11:34 | 41.93434 | 2.70558 | 13013 ft | 387 kts | 190° |
| 2026-04-14 11:34 | 41.90837 | 2.69927 | 12497 ft | 369 kts | 190° |
| 2026-04-14 11:34 | 41.88391 | 2.69333 | 11994 ft | 354 kts | 191° |
| 2026-04-14 11:35 | 41.86000 | 2.68753 | 11489 ft | 342 kts | 190° |
| 2026-04-14 11:35 | 41.83693 | 2.68195 | 10992 ft | 331 kts | 190° |
| 2026-04-14 11:35 | 41.81453 | 2.67651 | 10504 ft | 322 kts | 190° |
| 2026-04-14 11:35 | 41.79283 | 2.67126 | 10087 ft | 311 kts | 191° |
| 2026-04-14 11:36 | 41.77197 | 2.66624 | 9807 ft | 306 kts | 190° |
| 2026-04-14 11:36 | 41.75107 | 2.66122 | 9509 ft | 305 kts | 191° |
| 2026-04-14 11:36 | 41.73020 | 2.65622 | 9216 ft | 303 kts | 191° |
| 2026-04-14 11:36 | 41.70991 | 2.65136 | 8918 ft | 289 kts | 191° |
| 2026-04-14 11:37 | 41.69049 | 2.64671 | 8615 ft | 275 kts | 191° |
| 2026-04-14 11:37 | 41.67195 | 2.64271 | 8331 ft | 266 kts | 182° |
| 2026-04-14 11:37 | 41.65382 | 2.64581 | 8124 ft | 262 kts | 165° |
| 2026-04-14 11:37 | 41.63642 | 2.65220 | 8068 ft | 262 kts | 162° |
| 2026-04-14 11:38 | 41.61885 | 2.65908 | 7860 ft | 264 kts | 162° |
| 2026-04-14 11:38 | 41.60132 | 2.66604 | 7523 ft | 261 kts | 164° |
| 2026-04-14 11:38 | 41.58333 | 2.66823 | 7208 ft | 261 kts | 189° |
| 2026-04-14 11:38 | 41.56655 | 2.66031 | 6918 ft | 255 kts | 216° |
| 2026-04-14 11:39 | 41.55396 | 2.64416 | 6682 ft | 249 kts | 237° |
| 2026-04-14 11:39 | 41.54385 | 2.62545 | 6435 ft | 248 kts | 237° |
| 2026-04-14 11:39 | 41.53388 | 2.60697 | 6174 ft | 247 kts | 237° |
| 2026-04-14 11:39 | 41.52386 | 2.58840 | 5918 ft | 245 kts | 236° |
| 2026-04-14 11:40 | 41.51395 | 2.57000 | 5661 ft | 243 kts | 236° |
| 2026-04-14 11:40 | 41.50409 | 2.55173 | 5397 ft | 241 kts | 236° |
| 2026-04-14 11:40 | 41.49439 | 2.53383 | 5148 ft | 240 kts | 235° |
| 2026-04-14 11:40 | 41.48453 | 2.51560 | 4886 ft | 238 kts | 235° |
| 2026-04-14 11:41 | 41.47496 | 2.49790 | 4626 ft | 236 kts | 235° |
| 2026-04-14 11:41 | 41.46534 | 2.48012 | 4369 ft | 235 kts | 235° |
| 2026-04-14 11:41 | 41.45579 | 2.46251 | 4110 ft | 233 kts | 235° |
| 2026-04-14 11:41 | 41.44640 | 2.44523 | 3859 ft | 231 kts | 235° |
| 2026-04-14 11:42 | 41.43704 | 2.42797 | 3602 ft | 229 kts | 235° |
| 2026-04-14 11:42 | 41.42770 | 2.41073 | 3351 ft | 227 kts | 235° |
| 2026-04-14 11:42 | 41.41846 | 2.39366 | 3087 ft | 226 kts | 235° |
| 2026-04-14 11:42 | 41.40939 | 2.37690 | 2829 ft | 225 kts | 235° |
| 2026-04-14 11:43 | 41.40025 | 2.36007 | 2569 ft | 223 kts | 235° |
| 2026-04-14 11:43 | 41.39114 | 2.34336 | 2370 ft | 221 kts | 235° |
| 2026-04-14 11:43 | 41.38253 | 2.32642 | 2298 ft | 220 kts | 240° |
| 2026-04-14 11:43 | 41.37544 | 2.30825 | 2306 ft | 220 kts | 245° |
| 2026-04-14 11:44 | 41.36915 | 2.29001 | 2305 ft | 210 kts | 246° |
| 2026-04-14 11:44 | 41.36342 | 2.27313 | 2297 ft | 194 kts | 246° |
| 2026-04-14 11:44 | 41.35804 | 2.25727 | 2316 ft | 184 kts | 246° |
| 2026-04-14 11:44 | 41.35281 | 2.24189 | 2234 ft | 181 kts | 246° |
| 2026-04-14 11:45 | 41.34763 | 2.22666 | 2026 ft | 180 kts | 245° |
| 2026-04-14 11:45 | 41.34252 | 2.21162 | 1799 ft | 175 kts | 245° |
| 2026-04-14 11:45 | 41.33762 | 2.19725 | 1579 ft | 164 kts | 245° |
| 2026-04-14 11:45 | 41.33300 | 2.18368 | 1366 ft | 159 kts | 245° |
| 2026-04-14 11:46 | 41.32846 | 2.17036 | 1117 ft | 156 kts | 244° |
| 2026-04-14 11:46 | 41.32423 | 2.15782 | 894 ft | 143 kts | 243° |
| 2026-04-14 11:46 | 41.32019 | 2.14590 | 737 ft | 139 kts | 245° |
| 2026-04-14 11:46 | 41.31620 | 2.13422 | 564 ft | 136 kts | 242° |
| 2026-04-14 11:47 | 41.31227 | 2.12280 | 366 ft | 138 kts | 242° |
| 2026-04-14 11:47 | 41.30830 | 2.11120 | 201 ft | 138 kts | 242° |
| 2026-04-14 11:47 | 41.30436 | 2.09961 | 34 ft | 132 kts | 242° |
| 2026-04-14 11:47 | 41.30089 | 2.08960 | 19 ft | 99 kts | 246° |
| 2026-04-14 11:48 | 41.29876 | 2.08337 | 23 ft | 50 kts | 246° |
| 2026-04-14 11:48 | 41.29757 | 2.08019 | 18 ft | 31 kts | 239° |
| 2026-04-14 11:48 | 41.29598 | 2.07839 | 17 ft | 29 kts | 213° |
| 2026-04-14 11:48 | 41.29487 | 2.07812 | 18 ft | 13 kts | 159° |
| 2026-04-14 11:49 | 41.29392 | 2.07862 | 16 ft | 16 kts | 158° |
| 2026-04-14 11:49 | 41.29294 | 2.07928 | 19 ft | 16 kts | 152° |
| 2026-04-14 11:49 | 41.29253 | 2.07970 | 19 ft | 2 kts | 95° |
| 2026-04-14 11:49 | 41.29256 | 2.07986 | 19 ft | 3 kts | 76° |
| 2026-04-14 11:50 | 41.29305 | 2.08132 | 19 ft | 28 kts | 65° |
| 2026-04-14 11:50 | 41.29374 | 2.08358 | 19 ft | 13 kts | 86° |
| 2026-04-14 11:50 | 41.29337 | 2.08396 | 19 ft | 7 kts | 158° |
| 2026-04-14 11:51 | 41.29247 | 2.08449 | 23 ft | 7 kts | 155° |
| 2026-04-14 11:51 | 41.29194 | 2.08447 | 20 ft | 9 kts | 201° |
| 2026-04-14 11:51 | 41.29126 | 2.08412 | 19 ft | 12 kts | 198° |
| 2026-04-14 11:51 | 41.29048 | 2.08360 | 19 ft | 14 kts | 238° |
| 2026-04-14 11:52 | 41.29005 | 2.08238 | 19 ft | 16 kts | 246° |
| 2026-04-14 11:52 | 41.28957 | 2.08098 | 19 ft | 18 kts | 244° |
| 2026-04-14 11:52 | 41.28930 | 2.08010 | 21 ft | 7 kts | 264° |
| 2026-04-14 11:52 | 41.28955 | 2.07980 | 19 ft | 4 kts | 330° |
| 2026-04-14 11:53 | 41.28978 | 2.07963 | 19 ft | 3 kts | 334° |
| 2026-04-14 11:53 | 41.28995 | 2.07953 | 21 ft | 2 kts | 336° |
| 2026-04-14 11:53 | 41.28996 | 2.07952 | 20 ft | 0 kts | 336° |